SAAJ/JNI METAR and TAF weather

Enter ICAO airport designator
Station Type Date Time Source
SAAJ METAR 2019/12/29 19:12 UTC NOAA

SAAJ 291912Z 23009G19KT 9999 -TSRA BKN030 FEW040CB OVC058 24/20 Q1013


Station Type Date Time Source
SAAJ Decoded METAR 2019/12/29 19:12 UTC NOAA

Junin Aerodrome, Argentina (SAAJ) 34-33S 060-55W 81M
Dec 29, 2019 - 02:12 PM EST / 2019.12.29 1912 UTC
Wind: from the SW (230 degrees) at 10 MPH (9 KT) gusting to 22 MPH (19 KT):0
Visibility: greater than 7 mile(s):0
Sky conditions: overcast
Weather: light rain with thunder; Cumulonimbus clouds observed
Temperature: 75 F (24 C)
Dew Point: 68 F (20 C)
Relative Humidity: 78%
Pressure (altimeter): 29.91 in. Hg (1013 hPa)
ob: SAAJ 291912Z 23009G19KT 9999 -TSRA BKN030 FEW040CB OVC058 24/20 Q1013
cycle: 19

Station Type Date Time Source
SAAJ TAF UTC NOAA

Error!

Example: see airport list